createdAt,value
2023-03-16T00:02:24.451Z,98928.81
2023-03-16T00:04:51.397Z,98938.13
2023-03-16T00:07:18.225Z,98934.75
2023-03-16T00:09:45.010Z,98924.44
2023-03-16T00:12:16.060Z,98919.34
2023-03-16T00:14:44.582Z,98910.84
2023-03-16T00:17:19.559Z,98907.44
2023-03-16T00:19:55.174Z,98909.19
2023-03-16T00:22:24.980Z,98906.53
2023-03-16T00:24:55.543Z,98911.63
2023-03-16T00:27:25.112Z,98910.72
2023-03-16T00:29:56.668Z,98920.03
2023-03-16T00:32:29.282Z,98917.41
2023-03-16T00:34:56.444Z,98929.16
2023-03-16T00:37:24.627Z,98917.25
2023-03-16T00:39:52.317Z,98920.59
2023-03-16T00:42:19.936Z,98923.09
2023-03-16T00:44:46.974Z,98923.09
2023-03-16T00:47:17.256Z,98923.97
2023-03-16T00:49:44.377Z,98919.63
2023-03-16T00:52:14.809Z,98920.56
2023-03-16T00:54:46.926Z,98921.44
2023-03-16T00:57:14.661Z,98909.50
2023-03-16T00:59:42.225Z,98911.19
2023-03-16T01:02:09.876Z,98903.50
2023-03-16T01:04:37.347Z,98906.97
2023-03-16T01:07:05.467Z,98907.84
2023-03-16T01:09:36.974Z,98903.59
2023-03-16T01:12:09.657Z,98911.28
2023-03-16T01:14:37.449Z,98918.94
2023-03-16T01:17:08.461Z,98915.63
2023-03-16T01:19:37.343Z,98909.72
2023-03-16T01:22:05.744Z,98920.78
2023-03-16T01:24:32.910Z,98920.78
2023-03-16T01:26:59.714Z,98914.88
2023-03-16T01:29:26.574Z,98923.41
2023-03-16T01:31:53.456Z,98922.59
2023-03-16T01:34:20.320Z,98923.47
2023-03-16T01:36:48.421Z,98922.63
2023-03-16T01:39:15.908Z,98929.47
2023-03-16T01:41:44.442Z,98920.94
2023-03-16T01:44:16.683Z,98913.31
2023-03-16T01:46:44.448Z,98910.72
2023-03-16T01:49:17.178Z,98917.56
2023-03-16T01:51:52.030Z,98919.28
2023-03-16T01:54:32.922Z,98922.75
2023-03-16T01:57:18.316Z,98914.13
2023-03-16T01:59:57.910Z,98912.50
2023-03-16T02:02:31.216Z,98919.31
2023-03-16T02:05:09.712Z,98916.72
2023-03-16T02:07:42.455Z,98927.81
2023-03-16T02:10:12.009Z,98928.59
2023-03-16T02:12:39.497Z,98927.69
2023-03-16T02:15:07.144Z,98916.59
2023-03-16T02:17:53.861Z,98915.75
2023-03-16T02:20:42.594Z,98923.47
2023-03-16T02:23:18.505Z,98914.06
2023-03-16T02:25:45.203Z,98908.97
2023-03-16T02:28:26.983Z,98910.72
2023-03-16T02:30:54.078Z,98913.22
2023-03-16T02:33:21.889Z,98927.69
2023-03-16T02:35:48.691Z,98920.03
2023-03-16T02:38:15.499Z,98913.22
2023-03-16T02:40:44.072Z,98915.81
2023-03-16T02:43:22.334Z,98898.84
2023-03-16T02:45:57.057Z,98894.56
2023-03-16T02:48:30.071Z,98897.94
2023-03-16T02:50:56.805Z,98897.94
2023-03-16T02:53:23.641Z,98896.25
2023-03-16T02:55:50.689Z,98900.50
2023-03-16T02:58:18.275Z,98900.50
2023-03-16T03:00:45.870Z,98894.56
2023-03-16T03:03:12.775Z,98906.53
2023-03-16T03:05:40.087Z,98905.69
2023-03-16T03:08:07.160Z,98902.31
2023-03-16T03:10:33.896Z,98905.69
2023-03-16T03:13:00.849Z,98907.41
2023-03-16T03:15:27.612Z,98905.69
2023-03-16T03:17:54.336Z,98898.84
2023-03-16T03:20:21.726Z,98898.84
2023-03-16T03:22:50.016Z,98898.88
2023-03-16T03:25:18.652Z,98890.34
2023-03-16T03:27:47.357Z,98888.63
2023-03-16T03:30:17.330Z,98898.84
2023-03-16T03:32:44.717Z,98885.16
2023-03-16T03:35:14.032Z,98880.97
2023-03-16T03:37:42.482Z,98880.13
2023-03-16T03:40:11.982Z,98869.88
2023-03-16T03:42:39.967Z,98876.72
2023-03-16T03:45:08.049Z,98882.59
2023-03-16T03:47:35.059Z,98872.31
2023-03-16T03:50:01.880Z,98878.22
2023-03-16T03:52:29.105Z,98879.94
2023-03-16T03:54:55.964Z,98878.19
2023-03-16T03:57:22.801Z,98888.41
2023-03-16T03:59:49.589Z,98890.09
2023-03-16T04:02:16.698Z,98895.19
2023-03-16T04:04:44.245Z,98900.31
2023-03-16T04:07:12.005Z,98896.97
2023-03-16T04:09:38.837Z,98908.88
2023-03-16T04:12:06.333Z,98908.84
2023-03-16T04:14:33.171Z,98895.16
2023-03-16T04:17:00.035Z,98897.66
2023-03-16T04:19:26.832Z,98897.66
2023-03-16T04:21:53.819Z,98892.53
2023-03-16T04:24:22.386Z,98890.03
2023-03-16T04:26:49.512Z,98885.69
2023-03-16T04:29:19.664Z,98881.41
2023-03-16T04:31:46.670Z,98890.69
2023-03-16T04:34:13.838Z,98882.94
2023-03-16T04:36:42.171Z,98890.56
2023-03-16T04:39:10.547Z,98888.75
2023-03-16T04:41:37.369Z,98895.63
2023-03-16T04:44:04.849Z,98900.72
2023-03-16T04:46:32.183Z,98899.91
2023-03-16T04:48:59.395Z,98906.72
2023-03-16T04:51:26.973Z,98922.00
2023-03-16T04:53:53.877Z,98923.66
2023-03-16T04:56:21.078Z,98930.44
2023-03-16T04:58:49.746Z,98923.59
2023-03-16T05:01:17.313Z,98915.03
2023-03-16T05:03:44.640Z,98920.94
2023-03-16T05:06:12.466Z,98925.13
2023-03-16T05:08:39.189Z,98930.25
2023-03-16T05:11:06.166Z,98937.88
2023-03-16T05:13:33.222Z,98940.34
2023-03-16T05:16:00.348Z,98940.28
2023-03-16T05:18:27.314Z,98935.09
2023-03-16T05:20:56.196Z,98937.56
2023-03-16T05:23:23.907Z,98939.19
2023-03-16T05:25:51.159Z,98935.75
2023-03-16T05:28:18.063Z,98932.38
2023-03-16T05:30:47.856Z,98925.59
2023-03-16T05:33:14.771Z,98929.88
2023-03-16T05:35:41.611Z,98918.03
2023-03-16T05:38:10.000Z,98915.59
2023-03-16T05:40:37.398Z,98923.28
2023-03-16T05:43:04.523Z,98925.03
2023-03-16T05:45:31.424Z,98916.44
2023-03-16T05:47:58.273Z,98927.59
2023-03-16T05:50:26.606Z,98933.56
2023-03-16T05:52:54.246Z,98933.69
2023-03-16T05:55:21.073Z,98930.31
2023-03-16T05:57:47.811Z,98932.88
2023-03-16T06:00:16.356Z,98940.56
2023-03-16T06:02:45.280Z,98942.31
2023-03-16T06:05:12.096Z,98935.53
2023-03-16T06:07:38.917Z,98937.22
2023-03-16T06:10:06.864Z,98933.88
2023-03-16T06:12:34.641Z,98935.47
2023-03-16T06:15:02.857Z,98938.91
2023-03-16T06:17:30.168Z,98942.25
2023-03-16T06:19:56.965Z,98955.84
2023-03-16T06:22:25.131Z,98959.16
2023-03-16T06:24:52.231Z,98966.84
2023-03-16T06:27:20.460Z,98966.84
2023-03-16T06:29:47.820Z,98969.44
2023-03-16T06:32:15.140Z,98971.19
2023-03-16T06:34:41.937Z,98975.41
2023-03-16T06:37:09.009Z,98969.38
2023-03-16T06:39:36.006Z,98969.38
2023-03-16T06:42:04.586Z,98962.56
2023-03-16T06:44:31.578Z,98966.81
2023-03-16T06:46:58.798Z,98966.00
2023-03-16T06:49:25.669Z,98961.78
2023-03-16T06:51:52.804Z,98966.13
2023-03-16T06:54:19.833Z,98961.16
2023-03-16T06:56:46.679Z,98957.75
2023-03-16T06:59:13.810Z,98965.41
2023-03-16T07:01:40.738Z,98965.41
2023-03-16T07:04:08.261Z,98954.31
2023-03-16T07:06:35.168Z,98954.38
2023-03-16T07:09:02.173Z,98946.78
2023-03-16T07:11:29.088Z,98951.19
2023-03-16T07:13:55.839Z,98954.63
2023-03-16T07:16:22.646Z,98961.50
2023-03-16T07:18:49.617Z,98960.81
2023-03-16T07:21:16.575Z,98962.56
2023-03-16T07:23:43.432Z,98975.34
2023-03-16T07:26:12.106Z,98976.97
2023-03-16T07:28:42.145Z,98966.72
2023-03-16T07:31:09.621Z,98965.09
2023-03-16T07:33:36.756Z,98959.97
2023-03-16T07:36:09.332Z,98965.91
2023-03-16T07:38:36.310Z,98963.41
2023-03-16T07:41:03.070Z,98959.19
2023-03-16T07:43:30.022Z,98951.53
2023-03-16T07:45:57.063Z,98947.31
2023-03-16T07:48:24.035Z,98948.22
2023-03-16T07:50:51.173Z,98953.34
2023-03-16T07:53:18.304Z,98942.31
2023-03-16T07:55:45.727Z,98941.53
2023-03-16T07:58:13.470Z,98936.50
2023-03-16T08:00:42.471Z,98940.09
2023-03-16T08:03:09.695Z,98937.59
2023-03-16T08:05:36.748Z,98941.09
2023-03-16T08:08:03.602Z,98939.50
2023-03-16T08:10:31.447Z,98932.81
2023-03-16T08:12:58.664Z,98930.31
2023-03-16T08:15:25.656Z,98940.38
2023-03-16T08:17:52.663Z,98952.28
2023-03-16T08:20:20.075Z,98952.22
2023-03-16T08:22:47.078Z,98944.63
2023-03-16T08:25:14.873Z,98950.63
2023-03-16T08:27:43.288Z,98945.63
2023-03-16T08:30:12.616Z,98950.88
2023-03-16T08:32:41.019Z,98952.56
2023-03-16T08:35:13.578Z,98957.69
2023-03-16T08:37:41.561Z,98954.28
2023-03-16T08:40:19.527Z,98959.44
2023-03-16T08:42:46.445Z,98956.00
2023-03-16T08:45:14.358Z,98956.94
2023-03-16T08:47:42.694Z,98954.53
2023-03-16T08:50:13.344Z,98953.75
2023-03-16T08:52:40.846Z,98956.34
2023-03-16T08:55:10.369Z,98956.34
2023-03-16T08:57:39.402Z,98961.34
2023-03-16T09:00:14.104Z,98958.75
2023-03-16T09:02:44.699Z,98961.34
2023-03-16T09:05:14.752Z,98962.09
2023-03-16T09:07:42.401Z,98959.53
2023-03-16T09:10:13.361Z,98951.19
2023-03-16T09:12:40.984Z,98956.25
2023-03-16T09:15:10.175Z,98946.81
2023-03-16T09:17:37.260Z,98957.16
2023-03-16T09:20:21.121Z,98951.13
2023-03-16T09:22:49.129Z,98957.88
2023-03-16T09:25:16.054Z,98953.59
2023-03-16T09:27:43.136Z,98962.13
2023-03-16T09:30:11.096Z,98949.34
2023-03-16T09:32:38.257Z,98953.59
2023-03-16T09:35:06.563Z,98949.34
2023-03-16T09:37:44.795Z,98956.22
2023-03-16T09:40:26.658Z,98958.03
2023-03-16T09:43:14.447Z,98956.34
2023-03-16T09:46:15.491Z,98955.66
2023-03-16T09:48:42.536Z,98951.28
2023-03-16T09:51:35.367Z,98954.94
2023-03-16T09:54:04.851Z,98954.00
2023-03-16T09:56:37.989Z,98944.75
2023-03-16T09:59:13.496Z,98946.63
2023-03-16T10:02:14.523Z,98945.88
2023-03-16T10:04:54.408Z,98942.28
2023-03-16T10:07:57.145Z,98953.47
2023-03-16T10:10:45.143Z,98957.56
2023-03-16T10:13:17.782Z,98953.09
2023-03-16T10:15:48.984Z,98958.16
2023-03-16T10:18:26.454Z,98962.50
2023-03-16T10:20:55.415Z,98961.63
2023-03-16T10:23:24.500Z,98963.47
2023-03-16T10:25:53.566Z,98957.59
2023-03-16T10:28:28.546Z,98961.25
2023-03-16T10:31:00.156Z,98956.16
2023-03-16T10:33:31.562Z,98959.63
2023-03-16T10:36:10.662Z,98959.59
2023-03-16T10:38:40.453Z,98963.06
2023-03-16T10:41:21.594Z,98964.13
2023-03-16T10:43:59.933Z,98963.31
2023-03-16T10:46:28.859Z,98957.41
2023-03-16T10:49:01.432Z,98959.19
2023-03-16T10:51:34.943Z,98967.00
2023-03-16T10:54:10.946Z,98967.03
2023-03-16T10:56:38.437Z,98970.41
2023-03-16T10:59:38.265Z,98963.69
2023-03-16T11:02:22.753Z,98968.78
2023-03-16T11:04:50.585Z,98964.38
2023-03-16T11:07:19.427Z,98963.56
2023-03-16T11:09:47.856Z,98961.81
2023-03-16T11:12:41.506Z,98966.25
2023-03-16T11:15:25.150Z,98966.19
2023-03-16T11:17:53.666Z,98971.28
2023-03-16T11:20:28.570Z,98964.53
2023-03-16T11:22:56.379Z,98968.72
2023-03-16T11:25:37.407Z,98975.69
2023-03-16T11:28:17.035Z,98965.41
2023-03-16T11:31:01.492Z,98962.84
2023-03-16T11:33:31.169Z,98967.81
2023-03-16T11:36:19.317Z,98975.59
2023-03-16T11:39:11.119Z,98979.81
2023-03-16T11:42:04.053Z,98980.72
2023-03-16T11:44:56.605Z,98982.53
2023-03-16T11:48:05.869Z,98990.22
2023-03-16T11:50:44.295Z,98986.75
2023-03-16T11:53:37.140Z,98996.19
2023-03-16T11:56:08.055Z,98995.28
2023-03-16T11:58:57.071Z,98994.50
2023-03-16T12:01:43.025Z,98997.03
2023-03-16T12:04:28.525Z,99002.28
2023-03-16T12:07:21.946Z,99005.59
2023-03-16T12:10:06.045Z,99009.03
2023-03-16T12:12:53.608Z,99005.66
2023-03-16T12:15:21.467Z,98998.75
2023-03-16T12:17:51.479Z,99009.97
2023-03-16T12:20:24.869Z,99006.59
2023-03-16T12:22:54.608Z,99009.16
2023-03-16T12:25:25.722Z,99009.13
2023-03-16T12:27:55.664Z,99008.22
2023-03-16T12:30:44.203Z,99003.00
2023-03-16T12:33:32.600Z,99001.44
2023-03-16T12:36:40.089Z,99000.63
2023-03-16T12:39:40.683Z,99010.84
2023-03-16T12:42:33.580Z,99015.81
2023-03-16T12:45:18.162Z,99019.28
2023-03-16T12:48:17.860Z,99023.53
2023-03-16T12:50:53.283Z,99025.16
2023-03-16T12:53:53.320Z,99017.53
2023-03-16T12:56:30.139Z,99020.91
2023-03-16T12:59:00.267Z,99023.44
2023-03-16T13:01:31.673Z,99027.69
2023-03-16T13:04:15.266Z,99034.50
2023-03-16T13:07:08.000Z,99027.56
2023-03-16T13:09:42.288Z,99027.47
2023-03-16T13:12:10.555Z,99029.09
2023-03-16T13:14:44.290Z,99024.91
2023-03-16T13:17:17.443Z,99030.88
2023-03-16T13:19:47.868Z,99029.03
2023-03-16T13:22:28.649Z,99029.09
2023-03-16T13:25:11.036Z,99029.81
2023-03-16T13:27:39.662Z,99028.06
2023-03-16T13:30:18.321Z,99022.13
2023-03-16T13:32:46.123Z,99022.91
2023-03-16T13:35:15.514Z,99026.41
2023-03-16T13:37:43.992Z,99023.78
2023-03-16T13:40:23.828Z,99018.78
2023-03-16T13:42:53.077Z,99022.13
2023-03-16T13:45:28.152Z,99020.44
2023-03-16T13:47:55.561Z,99016.97
2023-03-16T13:50:22.312Z,99011.78
2023-03-16T13:53:04.555Z,99020.41
2023-03-16T13:55:36.977Z,99020.28
2023-03-16T13:58:04.894Z,99016.78
2023-03-16T14:00:35.209Z,99026.16
2023-03-16T14:03:14.377Z,99020.97
2023-03-16T14:05:41.434Z,99016.66
2023-03-16T14:08:20.687Z,99021.91
2023-03-16T14:10:48.522Z,99021.81
2023-03-16T14:13:36.206Z,99016.84
2023-03-16T14:16:17.761Z,99021.91
2023-03-16T14:18:48.326Z,99013.41
2023-03-16T14:21:19.834Z,99021.09
2023-03-16T14:23:56.822Z,99011.78
2023-03-16T14:26:24.100Z,99027.84
2023-03-16T14:29:14.814Z,99030.47
2023-03-16T14:31:41.783Z,99030.31
2023-03-16T14:34:27.089Z,99032.16
2023-03-16T14:36:54.142Z,99026.91
2023-03-16T14:39:26.967Z,99029.47
2023-03-16T14:41:53.744Z,99031.16
2023-03-16T14:44:27.119Z,99034.63
2023-03-16T14:46:59.374Z,99032.06
2023-03-16T14:49:28.009Z,99040.66
2023-03-16T14:52:00.509Z,99037.31
2023-03-16T14:54:28.678Z,99038.91
2023-03-16T14:57:03.937Z,99050.91
2023-03-16T14:59:30.727Z,99042.31
2023-03-16T15:01:59.294Z,99049.09
2023-03-16T15:04:31.313Z,99056.81
2023-03-16T15:06:58.590Z,99060.38
2023-03-16T15:09:43.882Z,99055.13
2023-03-16T15:12:19.622Z,99056.75
2023-03-16T15:15:05.556Z,99065.19
2023-03-16T15:17:33.179Z,99062.63
2023-03-16T15:20:00.073Z,99067.81
2023-03-16T15:22:32.722Z,99056.75
2023-03-16T15:25:03.755Z,99060.16
2023-03-16T15:27:36.496Z,99067.91
2023-03-16T15:30:03.534Z,99073.75
2023-03-16T15:32:30.945Z,99079.66
2023-03-16T15:34:57.852Z,99088.19
2023-03-16T15:37:27.674Z,99093.25
2023-03-16T15:39:54.693Z,99093.19
2023-03-16T15:42:21.455Z,99083.81
2023-03-16T15:44:48.425Z,99093.09
2023-03-16T15:47:15.620Z,99089.59
2023-03-16T15:49:47.703Z,99099.00
2023-03-16T15:52:32.687Z,99102.50
2023-03-16T15:55:04.560Z,99110.03
2023-03-16T15:57:32.069Z,99111.75
2023-03-16T15:59:59.450Z,99116.81
2023-03-16T16:02:28.456Z,99111.66
2023-03-16T16:04:55.473Z,99114.22
2023-03-16T16:07:22.329Z,99126.97
2023-03-16T16:09:49.567Z,99133.78
2023-03-16T16:12:17.933Z,99145.69
2023-03-16T16:14:44.849Z,99142.25
2023-03-16T16:17:21.089Z,99149.94
2023-03-16T16:19:49.884Z,99155.88
2023-03-16T16:22:16.698Z,99159.38
2023-03-16T16:24:43.913Z,99153.38
2023-03-16T16:27:12.443Z,99154.25
2023-03-16T16:29:39.743Z,99161.94
2023-03-16T16:32:24.913Z,99168.06
2023-03-16T16:35:03.411Z,99171.28
2023-03-16T16:37:30.976Z,99175.59
2023-03-16T16:39:57.799Z,99173.03
2023-03-16T16:42:24.888Z,99175.53
2023-03-16T16:44:53.628Z,99188.31
2023-03-16T16:47:24.296Z,99181.44
2023-03-16T16:49:52.041Z,99189.91
2023-03-16T16:52:19.946Z,99186.47
2023-03-16T16:54:46.925Z,99189.84
2023-03-16T16:57:20.821Z,99191.50
2023-03-16T16:59:48.797Z,99191.47
2023-03-16T17:02:44.676Z,99199.09
2023-03-16T17:05:26.743Z,99196.66
2023-03-16T17:07:54.165Z,99204.97
2023-03-16T17:10:27.212Z,99214.25
2023-03-16T17:12:57.000Z,99211.69
2023-03-16T17:15:28.867Z,99214.16
2023-03-16T17:18:13.233Z,99215.13
2023-03-16T17:20:40.214Z,99214.97
2023-03-16T17:23:29.843Z,99208.22
2023-03-16T17:25:59.295Z,99209.88
2023-03-16T17:28:29.762Z,99209.88
2023-03-16T17:30:57.154Z,99221.75
2023-03-16T17:33:26.191Z,99224.34
2023-03-16T17:35:53.148Z,99216.72
2023-03-16T17:38:22.919Z,99212.47
2023-03-16T17:40:51.264Z,99214.94
2023-03-16T17:43:20.970Z,99215.63
2023-03-16T17:45:51.316Z,99224.16
2023-03-16T17:48:21.480Z,99226.69
2023-03-16T17:50:48.666Z,99230.06
2023-03-16T17:53:17.740Z,99236.78
2023-03-16T17:55:46.797Z,99235.84
2023-03-16T17:58:28.194Z,99237.66
2023-03-16T18:00:55.977Z,99235.81
2023-03-16T18:03:25.765Z,99224.75
2023-03-16T18:05:52.654Z,99231.69
2023-03-16T18:08:25.982Z,99246.09
2023-03-16T18:10:56.487Z,99234.97
2023-03-16T18:13:36.265Z,99241.75
2023-03-16T18:16:05.884Z,99256.06
2023-03-16T18:18:37.221Z,99261.28
2023-03-16T18:21:04.863Z,99253.56
2023-03-16T18:23:34.643Z,99236.50
2023-03-16T18:26:07.061Z,99255.09
2023-03-16T18:28:35.032Z,99256.75
2023-03-16T18:31:05.108Z,99265.25
2023-03-16T18:33:39.270Z,99263.59
2023-03-16T18:36:12.944Z,99263.44
2023-03-16T18:38:43.617Z,99266.00
2023-03-16T18:41:18.435Z,99266.75
2023-03-16T18:43:46.600Z,99264.94
2023-03-16T18:46:25.747Z,99278.84
2023-03-16T18:48:55.497Z,99280.25
2023-03-16T18:51:22.982Z,99279.25
2023-03-16T18:53:50.491Z,99283.41
2023-03-16T18:56:25.685Z,99288.72
2023-03-16T18:58:53.703Z,99272.44
2023-03-16T19:01:32.240Z,99283.50
2023-03-16T19:04:02.223Z,99286.81
2023-03-16T19:06:32.409Z,99286.81
2023-03-16T19:09:17.726Z,99286.91
2023-03-16T19:11:45.589Z,99298.66
2023-03-16T19:14:34.169Z,99304.13
2023-03-16T19:17:01.273Z,99300.41
2023-03-16T19:19:29.444Z,99313.94
2023-03-16T19:22:01.826Z,99316.59
2023-03-16T19:24:42.291Z,99314.09
2023-03-16T19:27:26.868Z,99327.63
2023-03-16T19:29:54.891Z,99318.97
2023-03-16T19:32:22.118Z,99322.28
2023-03-16T19:34:49.366Z,99316.38
2023-03-16T19:37:19.218Z,99320.63
2023-03-16T19:39:46.175Z,99329.91
2023-03-16T19:42:20.568Z,99325.66
2023-03-16T19:44:50.084Z,99335.97
2023-03-16T19:47:31.885Z,99342.81
2023-03-16T19:50:02.169Z,99337.63
2023-03-16T19:52:32.726Z,99333.34
2023-03-16T19:54:59.553Z,99338.41
2023-03-16T19:57:26.716Z,99343.59
2023-03-16T19:59:56.516Z,99352.91
2023-03-16T20:02:38.629Z,99355.53
2023-03-16T20:05:06.633Z,99345.03
2023-03-16T20:07:38.096Z,99342.56
2023-03-16T20:10:06.750Z,99344.19
2023-03-16T20:12:35.790Z,99349.31
2023-03-16T20:15:03.258Z,99344.19
2023-03-16T20:17:33.036Z,99360.28
2023-03-16T20:19:59.757Z,99352.63
2023-03-16T20:22:28.600Z,99352.72
2023-03-16T20:24:58.125Z,99348.31
2023-03-16T20:27:25.528Z,99347.41
2023-03-16T20:29:52.335Z,99361.13
2023-03-16T20:32:24.825Z,99353.41
2023-03-16T20:34:52.599Z,99364.38
2023-03-16T20:37:30.849Z,99355.22
2023-03-16T20:39:59.129Z,99366.22
2023-03-16T20:42:34.493Z,99367.91
2023-03-16T20:45:01.718Z,99371.25
2023-03-16T20:47:30.199Z,99354.13
2023-03-16T20:50:00.275Z,99368.59
2023-03-16T20:52:30.809Z,99379.66
2023-03-16T20:54:58.247Z,99369.50
2023-03-16T20:57:27.518Z,99387.31
2023-03-16T20:59:55.527Z,99382.13
2023-03-16T21:02:28.765Z,99385.63
2023-03-16T21:04:57.926Z,99389.88
2023-03-16T21:07:24.809Z,99400.00
2023-03-16T21:09:52.072Z,99398.19
2023-03-16T21:12:40.713Z,99404.41
2023-03-16T21:15:19.507Z,99405.00
2023-03-16T21:17:47.394Z,99402.50
2023-03-16T21:20:19.553Z,99398.19
2023-03-16T21:22:46.966Z,99401.44
2023-03-16T21:25:23.451Z,99403.19
2023-03-16T21:27:50.814Z,99415.75
2023-03-16T21:30:24.606Z,99423.63
2023-03-16T21:32:52.377Z,99407.31
2023-03-16T21:35:19.622Z,99409.84
2023-03-16T21:37:49.316Z,99402.25
2023-03-16T21:40:21.658Z,99409.13
2023-03-16T21:42:48.680Z,99410.91
2023-03-16T21:45:16.029Z,99405.56
2023-03-16T21:47:43.731Z,99414.00
2023-03-16T21:50:23.443Z,99411.59
2023-03-16T21:52:51.246Z,99412.25
2023-03-16T21:55:24.414Z,99422.69
2023-03-16T21:57:51.741Z,99419.16
2023-03-16T22:00:36.516Z,99425.19
2023-03-16T22:03:04.362Z,99418.25
2023-03-16T22:05:38.312Z,99422.41
2023-03-16T22:08:16.154Z,99421.81
2023-03-16T22:10:43.155Z,99421.63
2023-03-16T22:13:12.044Z,99425.00
2023-03-16T22:15:41.440Z,99423.44
2023-03-16T22:18:22.519Z,99423.44
2023-03-16T22:20:49.275Z,99434.38
2023-03-16T22:23:31.872Z,99434.53
2023-03-16T22:25:58.932Z,99426.81
2023-03-16T22:28:26.427Z,99442.09
2023-03-16T22:30:54.779Z,99449.66
2023-03-16T22:33:28.236Z,99446.25
2023-03-16T22:36:00.344Z,99446.28
2023-03-16T22:38:27.233Z,99452.25
2023-03-16T22:40:54.210Z,99448.09
2023-03-16T22:43:30.224Z,99455.81
2023-03-16T22:45:57.357Z,99464.28
2023-03-16T22:48:27.376Z,99459.19
2023-03-16T22:50:56.650Z,99463.38
2023-03-16T22:53:37.163Z,99465.22
2023-03-16T22:56:05.554Z,99461.78
2023-03-16T22:58:39.478Z,99464.22
2023-03-16T23:01:21.636Z,99474.50
2023-03-16T23:03:51.374Z,99464.16
2023-03-16T23:06:26.996Z,99472.69
2023-03-16T23:08:54.822Z,99460.88
2023-03-16T23:11:28.524Z,99470.13
2023-03-16T23:13:55.950Z,99467.59
2023-03-16T23:16:29.230Z,99468.41
2023-03-16T23:18:56.344Z,99484.53
2023-03-16T23:21:24.873Z,99483.75
2023-03-16T23:24:03.204Z,99488.97
2023-03-16T23:26:31.733Z,99480.19
2023-03-16T23:28:58.835Z,99479.28
2023-03-16T23:31:27.263Z,99480.22
2023-03-16T23:33:54.211Z,99489.56
2023-03-16T23:36:23.043Z,99494.75
2023-03-16T23:38:50.688Z,99497.31
2023-03-16T23:41:23.567Z,99494.03
2023-03-16T23:43:51.131Z,99493.22
2023-03-16T23:46:20.909Z,99498.22
2023-03-16T23:48:49.239Z,99505.06
2023-03-16T23:51:36.090Z,99505.16
2023-03-16T23:54:14.236Z,99510.25
2023-03-16T23:56:40.967Z,99509.34
2023-03-16T23:59:07.753Z,99518.75
